Time;durP1;ratioP1;P1;durP2;ratioP2;P2;SDS_P1;SDS_P2;PMS_P1;PMS_P2;Temp;Humidity;BMP_temperature;BMP_pressure;BME280_temperature;BME280_humidity;BME280_pressure;Samples;Min_cycle;Max_cycle;Signal;HPM_P1;HPM_P2
2020/12/15 00:00:05;;;;;;;;;;;;;;;2.35;100.00;96072.97;4964504;28;19925;-59
2020/12/15 00:02:33;;;;;;;;;;;;;;;2.36;100.00;96072.03;5005886;28;19926;-57
2020/12/15 00:05:00;;;;;;;;;;;;;;;2.38;100.00;96060.59;4968321;28;21662;-55
2020/12/15 00:07:26;;;;;;;;;;;;;;;2.31;100.00;96066.31;5010133;28;19925;-55
2020/12/15 00:09:54;;;;;;;;;;;;;;;2.36;100.00;96062.47;4977411;28;20280;-57
2020/12/15 00:12:21;;;;;;;;;;;;;;;2.41;100.00;96074.31;5022434;28;19979;-57
2020/12/15 00:14:48;;;;;;;;;;;;;;;2.34;100.00;96082.56;4976768;28;20038;-57
2020/12/15 00:17:15;;;;;;;;;;;;;;;2.28;100.00;96075.16;5023517;28;20487;-54
2020/12/15 00:19:43;;;;;;;;;;;;;;;2.37;100.00;96074.56;4974894;28;19956;-58
2020/12/15 00:22:09;;;;;;;;;;;;;;;2.41;100.00;96079.53;5023259;28;20358;-56
2020/12/15 00:24:36;;;;;;;;;;;;;;;2.46;100.00;96078.28;4983703;28;19942;-56
2020/12/15 00:27:03;;;;;;;;;;;;;;;2.40;100.00;96064.84;5005667;28;19943;-55
2020/12/15 00:29:30;;;;;;;;;;;;;;;2.43;100.00;96056.84;4972724;28;19999;-55
2020/12/15 00:31:58;;;;;;;;;;;;;;;2.34;100.00;96050.47;5013805;28;19926;-58
2020/12/15 00:34:25;;;;;;;;;;;;;;;2.27;100.00;96037.09;5003813;28;19926;-57
2020/12/15 00:36:52;;;;;;;;;;;;;;;2.25;100.00;96040.72;4958254;28;20470;-58
2020/12/15 00:39:18;;;;;;;;;;;;;;;2.23;100.00;96037.38;5010830;28;19953;-58
2020/12/15 00:41:47;;;;;;;;;;;;;;;2.26;100.00;96027.59;4985696;28;19964;-54
2020/12/15 00:44:14;;;;;;;;;;;;;;;2.23;100.00;96025.19;5023002;28;20370;-58
2020/12/15 00:46:43;;;;;;;;;;;;;;;2.19;100.00;96020.31;4991666;28;19925;-56
2020/12/15 00:49:12;;;;;;;;;;;;;;;2.23;100.00;96019.16;5021554;28;19972;-57
2020/12/15 00:51:39;;;;;;;;;;;;;;;2.24;100.00;96020.84;4978651;28;20538;-55
2020/12/15 00:54:07;;;;;;;;;;;;;;;2.22;100.00;96025.31;5008287;28;19925;-56
2020/12/15 00:56:34;;;;;;;;;;;;;;;2.26;100.00;96035.41;4972364;28;19935;-59
2020/12/15 00:59:00;;;;;;;;;;;;;;;2.22;100.00;96028.75;4995783;28;19926;-56
2020/12/15 01:01:28;;;;;;;;;;;;;;;2.31;100.00;96038.53;4975950;28;19933;-57
2020/12/15 01:03:55;;;;;;;;;;;;;;;2.16;100.00;96036.97;5015589;28;19987;-54
2020/12/15 01:06:23;;;;;;;;;;;;;;;2.20;100.00;96042.78;4970095;28;19926;-59
2020/12/15 01:08:51;;;;;;;;;;;;;;;2.31;100.00;96045.53;5016113;28;19937;-56
2020/12/15 01:11:26;;;;;;;;;;;;;;;2.29;100.00;96044.78;4969711;28;20727;-56
2020/12/15 01:13:55;;;;;;;;;;;;;;;2.28;100.00;96059.56;5003542;28;19925;-56
2020/12/15 01:16:22;;;;;;;;;;;;;;;2.31;100.00;96071.53;4974599;28;20005;-57
2020/12/15 01:18:51;;;;;;;;;;;;;;;2.32;100.00;96076.63;5021346;28;19947;-56
2020/12/15 01:21:28;;;;;;;;;;;;;;;2.35;100.00;96073.81;4988213;28;20020;-56
2020/12/15 01:23:57;;;;;;;;;;;;;;;2.35;100.00;96075.59;4995763;28;19925;-57
2020/12/15 01:26:26;;;;;;;;;;;;;;;2.38;100.00;96076.22;5034462;28;19928;-58
2020/12/15 01:28:53;;;;;;;;;;;;;;;2.41;100.00;96079.53;4990348;28;19979;-57
2020/12/15 01:31:24;;;;;;;;;;;;;;;2.42;100.00;96087.25;5020598;28;19979;-56
2020/12/15 01:34:00;;;;;;;;;;;;;;;2.34;100.00;96086.91;4982545;28;20403;-57
2020/12/15 01:37:02;;;;;;;;;;;;;;;2.50;100.00;96090.16;5003812;28;21109;-59
2020/12/15 01:39:29;;;;;;;;;;;;;;;2.59;100.00;96099.13;5020133;28;19944;-55
2020/12/15 01:42:07;;;;;;;;;;;;;;;2.50;100.00;96089.31;5010067;28;19955;-54
2020/12/15 01:44:39;;;;;;;;;;;;;;;2.54;100.00;96089.00;5009133;28;19963;-58
2020/12/15 01:47:10;;;;;;;;;;;;;;;2.50;100.00;96090.16;5030065;28;19953;-57
2020/12/15 01:49:38;;;;;;;;;;;;;;;2.48;100.00;96094.66;4992870;28;19991;-56
2020/12/15 01:52:05;;;;;;;;;;;;;;;2.60;100.00;96101.59;5025724;28;19956;-59
2020/12/15 01:54:44;;;;;;;;;;;;;;;2.59;100.00;96099.94;4986827;28;19961;-56
2020/12/15 01:57:14;;;;;;;;;;;;;;;2.57;100.00;96098.38;5027340;28;20037;-55
2020/12/15 02:00:01;;;;;;;;;;;;;;;2.56;100.00;96094.94;4980637;28;19959;-59
2020/12/15 02:02:41;;;;;;;;;;;;;;;2.58;100.00;96103.50;5030306;28;19947;-57
2020/12/15 02:05:14;;;;;;;;;;;;;;;2.62;100.00;96098.91;4981866;28;20045;-59
2020/12/15 02:07:44;;;;;;;;;;;;;;;2.45;100.00;96099.22;5017299;28;19980;-56
2020/12/15 02:10:11;;;;;;;;;;;;;;;2.47;100.00;96108.56;4985365;28;19957;-58
2020/12/15 02:12:50;;;;;;;;;;;;;;;2.34;100.00;96105.13;5016041;28;20414;-55
2020/12/15 02:15:20;;;;;;;;;;;;;;;2.37;100.00;96108.38;4976885;28;19958;-58
2020/12/15 02:17:53;;;;;;;;;;;;;;;2.33;100.00;96100.88;5014192;28;20411;-58
2020/12/15 02:20:30;;;;;;;;;;;;;;;2.39;100.00;96090.06;4980930;28;19957;-58
2020/12/15 02:23:13;;;;;;;;;;;;;;;2.30;100.00;96083.69;5037028;28;19974;-58
2020/12/15 02:25:49;;;;;;;;;;;;;;;2.30;100.00;96083.69;4996362;28;20320;-59
2020/12/15 02:28:16;;;;;;;;;;;;;;;2.41;100.00;96092.53;5027979;28;20066;-56
2020/12/15 02:30:42;;;;;;;;;;;;;;;2.47;100.00;96098.16;4969432;28;19984;-60
2020/12/15 02:33:21;;;;;;;;;;;;;;;2.32;100.00;96102.63;5018553;28;19970;-58
2020/12/15 02:35:47;;;;;;;;;;;;;;;2.37;100.00;96112.72;4956814;28;19949;-59
2020/12/15 02:38:15;;;;;;;;;;;;;;;2.38;100.00;96104.00;5015843;28;20002;-59
2020/12/15 02:40:42;;;;;;;;;;;;;;;2.43;100.00;96101.09;4969490;28;19965;-58
2020/12/15 02:43:20;;;;;;;;;;;;;;;2.35;100.00;96089.44;5007501;28;20121;-59
2020/12/15 02:45:52;;;;;;;;;;;;;;;2.40;100.00;96098.69;4983460;28;19961;-59
2020/12/15 02:48:21;;;;;;;;;;;;;;;2.30;100.00;96108.88;5014357;28;19978;-57
2020/12/15 02:50:50;;;;;;;;;;;;;;;2.23;100.00;96103.25;4976634;28;19979;-59
2020/12/15 02:53:31;;;;;;;;;;;;;;;2.24;100.00;96106.69;5016598;28;20047;-58
2020/12/15 02:56:01;;;;;;;;;;;;;;;2.28;100.00;96108.16;4995957;28;19987;-59
2020/12/15 02:58:39;;;;;;;;;;;;;;;2.23;100.00;96102.41;5034363;28;20320;-56
2020/12/15 03:01:08;;;;;;;;;;;;;;;2.28;100.00;96102.97;4975629;28;19960;-59
2020/12/15 03:03:36;;;;;;;;;;;;;;;2.18;100.00;96107.09;5017014;28;19960;-56
2020/12/15 03:06:23;;;;;;;;;;;;;;;2.19;100.00;96120.00;4975238;28;19960;-58
2020/12/15 03:08:52;;;;;;;;;;;;;;;2.17;100.00;96121.03;5007608;28;20346;-58
2020/12/15 03:11:21;;;;;;;;;;;;;;;2.20;100.00;96129.44;4983438;28;19951;-59
2020/12/15 03:13:50;;;;;;;;;;;;;;;2.24;100.00;96123.13;5009455;28;20069;-60
2020/12/15 03:16:17;;;;;;;;;;;;;;;2.22;100.00;96126.78;4972182;28;20475;-58
2020/12/15 03:18:44;;;;;;;;;;;;;;;2.15;100.00;96134.13;5007543;28;19963;-58
2020/12/15 03:21:15;;;;;;;;;;;;;;;2.18;100.00;96128.75;4973964;28;19965;-53
2020/12/15 03:26:13;;;;;;;48.83;16.80;;;;;;;2.18;100.00;96126.13;5035770;27;20430;-59
2020/12/15 03:28:40;;;;;;;48.15;16.35;;;;;;;2.21;100.00;96127.72;5036699;28;20553;-50
2020/12/15 03:31:10;;;;;;;52.05;16.73;;;;;;;2.12;100.00;96118.72;5027560;28;20050;-50
2020/12/15 03:33:38;;;;;;;54.58;17.02;;;;;;;2.00;100.00;96114.34;4985011;28;20041;-57
2020/12/15 03:36:09;;;;;;;56.55;17.63;;;;;;;2.03;100.00;96119.31;5018753;28;20080;-57
2020/12/15 03:38:40;;;;;;;43.90;16.15;;;;;;;2.13;100.00;96123.00;5010693;28;20041;-57
2020/12/15 03:41:07;;;;;;;52.78;16.77;;;;;;;2.20;100.00;96118.22;5020753;28;20038;-58
2020/12/15 03:43:43;;;;;;;49.83;16.60;;;;;;;2.24;100.00;96127.50;5006172;28;20048;-58
2020/12/15 03:46:36;;;;;;;50.35;16.85;;;;;;;2.31;100.00;96129.59;5041908;28;20467;-57
2020/12/15 03:49:07;;;;;;;68.32;16.70;;;;;;;2.33;100.00;96117.31;4996469;28;20064;-57
2020/12/15 03:51:39;;;;;;;76.93;17.77;;;;;;;2.20;100.00;96126.84;5077098;28;20053;-58
2020/12/15 03:54:25;;;;;;;55.78;16.15;;;;;;;2.13;100.00;96131.66;5005753;28;20049;-59
2020/12/15 03:57:11;;;;;;;57.55;16.58;;;;;;;2.07;100.00;96132.06;5017057;28;20107;-59
2020/12/15 03:59:54;;;;;;;56.30;16.80;;;;;;;2.14;100.00;96122.91;5040462;28;20551;-56
2020/12/15 04:02:22;;;;;;;64.82;16.05;;;;;;;2.13;100.00;96125.59;5017472;28;20052;-59
2020/12/15 04:04:50;;;;;;;59.38;16.85;;;;;;;2.21;100.00;96125.09;4992762;28;20970;-57
2020/12/15 04:07:19;;;;;;;53.30;16.73;;;;;;;2.17;100.00;96127.09;5037725;28;20040;-59
2020/12/15 04:09:46;;;;;;;55.00;16.05;;;;;;;2.17;100.00;96140.09;5010754;28;20440;-57
2020/12/15 04:12:15;;;;;;;57.10;17.05;;;;;;;2.16;100.00;96141.00;5042092;28;20072;-58
2020/12/15 04:14:43;;;;;;;50.58;16.30;;;;;;;2.20;100.00;96139.03;5006807;28;20045;-58
2020/12/15 04:17:12;;;;;;;60.17;16.38;;;;;;;2.24;100.00;96128.34;5078357;28;20049;-59
2020/12/15 04:19:43;;;;;;;65.45;16.30;;;;;;;2.23;100.00;96121.44;5012228;28;20298;-58
2020/12/15 04:22:11;;;;;;;43.70;15.38;;;;;;;2.35;100.00;96120.66;5038378;28;20507;-58
2020/12/15 04:24:47;;;;;;;44.40;15.60;;;;;;;2.39;100.00;96121.28;5035465;28;20065;-58
2020/12/15 04:27:14;;;;;;;51.83;15.88;;;;;;;2.38;100.00;96145.63;5036868;28;20081;-59
2020/12/15 04:29:42;;;;;;;50.88;15.73;;;;;;;2.33;100.00;96135.50;4996894;28;20049;-59
2020/12/15 04:32:16;;;;;;;76.85;16.92;;;;;;;2.24;100.00;96099.72;5045132;28;20041;-58
2020/12/15 04:34:54;;;;;;;59.20;15.40;;;;;;;2.04;100.00;96097.63;5009742;28;20037;-59
2020/12/15 04:37:21;;;;;;;80.35;17.42;;;;;;;2.02;100.00;96109.88;5004266;28;20099;-59
2020/12/15 04:39:55;;;;;;;77.18;15.95;;;;;;;1.88;100.00;96109.00;4988109;28;20049;-60
2020/12/15 04:42:26;;;;;;;77.25;17.25;;;;;;;1.89;100.00;96108.09;5037541;28;20462;-60
2020/12/15 04:44:53;;;;;;;88.72;18.73;;;;;;;1.81;100.00;96107.75;4970342;28;20584;-59
2020/12/15 04:47:33;;;;;;;62.90;15.50;;;;;;;1.80;100.00;96100.06;5003061;28;20534;-60
2020/12/15 04:50:06;;;;;;;47.83;15.73;;;;;;;1.75;100.00;96087.34;4994909;28;20680;-59
2020/12/15 04:52:52;;;;;;;54.57;16.00;;;;;;;1.78;100.00;96086.31;5021989;28;20040;-59
2020/12/15 04:55:34;;;;;;;73.35;18.73;;;;;;;1.71;100.00;96069.44;4972049;28;20619;-57
2020/12/15 04:58:01;;;;;;;49.05;15.43;;;;;;;1.66;100.00;96067.16;5004005;28;20047;-58
2020/12/15 05:00:29;;;;;;;46.38;14.57;;;;;;;1.75;100.00;96082.13;4975547;28;20123;-59
2020/12/15 05:03:10;;;;;;;;;;;;;;;1.86;100.00;96092.69;5031996;28;20424;-56
2020/12/15 05:05:37;;;;;;;57.50;15.18;;;;;;;2.04;100.00;96062.03;4998082;28;19968;-59
2020/12/15 05:08:06;;;;;;;51.03;15.27;;;;;;;1.89;100.00;96050.91;5051820;28;20058;-57
2020/12/15 05:10:53;;;;;;;53.47;16.13;;;;;;;1.96;100.00;96035.72;4993582;28;20405;-59
2020/12/15 05:13:41;;;;;;;70.50;20.17;;;;;;;1.70;100.00;96003.66;5033562;28;20119;-56
2020/12/15 05:16:08;;;;;;;52.67;15.77;;;;;;;1.75;100.00;96021.53;4994106;28;20099;-58
2020/12/15 05:19:04;;;;;;;89.85;19.73;;;;;;;1.83;100.00;96046.09;5041328;28;20514;-58
2020/12/15 05:21:38;;;;;;;124.97;21.15;;;;;;;1.88;100.00;96027.59;5000864;28;20057;-59
2020/12/15 05:24:09;;;;;;;;;;;;;;;1.78;100.00;96005.72;5055941;28;20073;-58
2020/12/15 05:26:49;;;;;;;58.43;17.40;;;;;;;1.78;100.00;95998.75;4987977;28;19924;-58
2020/12/15 05:29:20;;;;;;;55.92;16.13;;;;;;;1.76;100.00;96020.63;5065159;28;20045;-59
2020/12/15 05:32:08;;;;;;;42.08;14.88;;;;;;;1.67;100.00;96006.44;4995876;28;20048;-58
2020/12/15 05:34:48;;;;;;;91.57;20.17;;;;;;;1.67;100.00;95973.50;5033364;28;20522;-59
2020/12/15 05:37:33;;;;;;;59.13;16.45;;;;;;;1.72;100.00;95974.94;4985915;28;20080;-58
2020/12/15 05:40:24;;;;;;;44.13;13.82;;;;;;;1.73;100.00;95963.63;5024414;28;20112;-59
2020/12/15 05:43:26;;;;;;;46.42;14.60;;;;;;;1.74;100.00;95971.31;4975921;28;20049;-58
2020/12/15 05:45:56;;;;;;;82.80;20.75;;;;;;;1.74;100.00;95986.91;5056210;28;20044;-59
2020/12/15 05:48:27;;;;;;;48.28;15.50;;;;;;;1.77;100.00;96007.50;4992267;28;20051;-59
2020/12/15 05:50:59;;;;;;;55.17;17.02;;;;;;;1.73;100.00;96010.41;5031647;28;20125;-59
2020/12/15 05:53:26;;;;;;;50.63;14.60;;;;;;;1.56;100.00;96014.94;4991160;28;20041;-59
2020/12/15 05:55:53;;;;;;;45.42;15.57;;;;;;;1.61;100.00;96004.25;5020258;28;20141;-58
2020/12/15 05:58:20;;;;;;;65.40;19.20;;;;;;;1.60;100.00;96028.56;4977114;28;20577;-57
2020/12/15 06:00:47;;;;;;;41.80;15.43;;;;;;;1.55;100.00;96057.47;5034452;28;20120;-59
2020/12/15 06:03:14;;;;;;;45.25;15.77;;;;;;;1.64;100.00;96037.81;4990675;28;20431;-59
2020/12/15 06:05:41;;;;;;;55.90;16.77;;;;;;;1.70;100.00;96047.00;5035137;28;20128;-58
2020/12/15 06:08:09;;;;;;;51.00;16.00;;;;;;;1.62;100.00;96039.72;4990742;28;20041;-59
2020/12/15 06:10:36;;;;;;;33.85;14.10;;;;;;;1.60;100.00;96051.97;5029273;28;20050;-56
2020/12/15 06:13:04;;;;;;;37.63;13.88;;;;;;;1.71;100.00;96059.06;4991658;28;20057;-58
2020/12/15 06:15:31;;;;;;;43.78;13.95;;;;;;;1.93;100.00;96056.72;5031777;28;20581;-58
2020/12/15 06:20:52;;;;;;;38.42;14.13;;;;;;;1.93;100.00;96066.25;5023732;28;20057;-57
2020/12/15 06:23:20;;;;;;;36.47;13.40;;;;;;;1.90;100.00;96067.31;4980712;28;20047;-56
2020/12/15 06:25:48;;;;;;;33.05;13.48;;;;;;;1.80;100.00;96059.28;5028034;28;20041;-56
2020/12/15 06:28:15;;;;;;;28.88;12.98;;;;;;;1.99;100.00;96058.06;5018941;28;20073;-60
2020/12/15 06:30:43;;;;;;;26.67;11.88;;;;;;;1.94;100.00;96052.34;5007621;28;20135;-59
2020/12/15 06:33:12;;;;;;;26.58;12.10;;;;;;;1.88;100.00;96050.97;5039682;28;20502;-58
2020/12/15 06:35:40;;;;;;;25.95;11.60;;;;;;;1.96;100.00;96046.13;4982880;28;20123;-55
2020/12/15 06:38:18;;;;;;;27.48;11.52;;;;;;;1.99;100.00;96056.28;5024080;28;20181;-59
2020/12/15 06:40:47;;;;;;;25.88;11.88;;;;;;;1.93;100.00;96054.13;5000699;28;20060;-59
2020/12/15 06:43:23;;;;;;;25.15;11.23;;;;;;;1.88;100.00;96066.56;5023544;28;20396;-59
2020/12/15 06:45:51;;;;;;;26.42;11.20;;;;;;;1.78;100.00;96063.75;4972323;28;20127;-59
2020/12/15 06:48:22;;;;;;;20.60;9.98;;;;;;;1.70;100.00;96065.19;5028220;28;20136;-58
2020/12/15 06:50:49;;;;;;;21.75;10.18;;;;;;;1.74;100.00;96071.84;4987333;28;20037;-57
2020/12/15 06:53:18;;;;;;;21.70;10.43;;;;;;;1.79;100.00;96064.56;5024818;28;20507;-58
2020/12/15 06:55:58;;;;;;;21.70;10.40;;;;;;;1.75;100.00;96063.13;4999157;28;20044;-59
2020/12/15 06:58:24;;;;;;;24.00;11.15;;;;;;;1.82;100.00;96072.19;5015712;28;20099;-58
2020/12/15 07:00:52;;;;;;;22.48;11.20;;;;;;;1.82;100.00;96069.56;4985287;28;20049;-57
2020/12/15 07:03:33;;;;;;;26.27;11.30;;;;;;;1.86;100.00;96076.25;5025505;28;20079;-59
2020/12/15 07:06:07;;;;;;;24.50;11.20;;;;;;;1.83;100.00;96071.25;4991037;28;20455;-56
2020/12/15 07:08:35;;;;;;;26.17;11.45;;;;;;;1.80;100.00;96074.06;5029474;28;20080;-58
2020/12/15 07:11:03;;;;;;;23.45;10.13;;;;;;;1.80;100.00;96077.50;4991013;28;20045;-58
2020/12/15 07:13:31;;;;;;;24.75;10.88;;;;;;;1.83;100.00;96082.50;5041064;28;20037;-55
2020/12/15 07:15:58;;;;;;;29.13;11.70;;;;;;;1.88;100.00;96083.00;4988097;28;20038;-58
2020/12/15 07:18:25;;;;;;;27.90;11.20;;;;;;;1.94;100.00;96076.59;5016428;28;20050;-57
2020/12/15 07:20:53;;;;;;;38.60;13.38;;;;;;;2.06;100.00;96082.72;4966257;28;20280;-58
2020/12/15 07:23:21;;;;;;;35.50;14.10;;;;;;;2.04;100.00;96093.25;5001663;28;20088;-59
2020/12/15 07:25:47;;;;;;;37.70;14.07;;;;;;;2.10;100.00;96095.44;4970109;28;22601;-58
2020/12/15 07:28:16;;;;;;;36.00;13.20;;;;;;;2.24;100.00;96080.69;5017516;28;20049;-58
2020/12/15 07:30:43;;;;;;;35.72;13.43;;;;;;;2.25;100.00;96090.97;4990278;28;20077;-57
2020/12/15 07:33:16;;;;;;;32.15;14.07;;;;;;;2.33;100.00;96080.06;4994118;28;20128;-58
2020/12/15 07:35:43;;;;;;;32.33;12.63;;;;;;;2.43;100.00;96081.09;5000749;28;20120;-58
2020/12/15 07:38:10;;;;;;;35.50;14.15;;;;;;;2.22;100.00;96088.56;4981867;28;20095;-54
2020/12/15 07:40:37;;;;;;;44.42;15.77;;;;;;;2.00;100.00;96091.78;5025067;28;20042;-58
2020/12/15 07:43:05;;;;;;;41.17;14.38;;;;;;;2.20;100.00;96094.81;4979537;28;20601;-58
2020/12/15 07:45:36;;;;;;;42.75;14.50;;;;;;;2.21;100.00;96094.72;5027765;28;20527;-58
2020/12/15 07:48:04;;;;;;;42.05;14.65;;;;;;;2.21;100.00;96099.09;4991320;28;20076;-58
2020/12/15 07:50:32;;;;;;;38.60;14.15;;;;;;;2.30;100.00;96108.88;5023389;28;20042;-57
2020/12/15 07:53:07;;;;;;;39.72;14.10;;;;;;;2.14;100.00;96109.91;4997814;28;20128;-58
2020/12/15 07:55:34;;;;;;;39.28;14.38;;;;;;;2.12;100.00;96100.53;5022750;28;20103;-59
2020/12/15 07:58:02;;;;;;;43.85;15.77;;;;;;;2.20;100.00;96105.22;4980995;28;20053;-55
2020/12/15 08:00:29;;;;;;;41.95;15.48;;;;;;;2.21;100.00;96112.09;5032803;28;20047;-58
2020/12/15 08:03:02;;;;;;;35.95;14.18;;;;;;;2.23;100.00;96118.03;4988254;28;20045;-55
2020/12/15 08:05:29;;;;;;;33.78;13.15;;;;;;;2.21;100.00;96131.13;5026213;28;20049;-59
2020/12/15 08:07:58;;;;;;;33.08;13.30;;;;;;;2.29;100.00;96125.44;4987517;28;20042;-59
2020/12/15 08:10:27;;;;;;;38.15;15.15;;;;;;;2.24;100.00;96122.31;5033854;28;20120;-58
2020/12/15 08:12:56;;;;;;;37.35;13.20;;;;;;;2.30;100.00;96122.72;4981291;28;20095;-57
2020/12/15 08:15:23;;;;;;;30.73;13.55;;;;;;;2.35;100.00;96112.84;5022770;28;20050;-59
2020/12/15 08:17:51;;;;;;;35.75;13.82;;;;;;;2.40;100.00;96120.31;5001052;28;20068;-59
2020/12/15 08:20:23;;;;;;;36.30;13.68;;;;;;;2.47;100.00;96129.38;5030260;28;20047;-58
2020/12/15 08:23:03;;;;;;;34.40;12.70;;;;;;;2.37;100.00;96120.53;4997050;28;20045;-58
2020/12/15 08:25:30;;;;;;;34.92;13.82;;;;;;;2.52;100.00;96108.28;5033601;28;20046;-58
2020/12/15 08:28:07;;;;;;;39.17;15.15;;;;;;;2.64;100.00;96124.81;5001937;28;20120;-57
2020/12/15 08:30:34;;;;;;;41.58;15.25;;;;;;;2.83;100.00;96135.66;5026045;28;20038;-58
2020/12/15 08:33:01;;;;;;;49.97;21.08;;;;;;;2.89;100.00;96127.44;5036976;28;20037;-59
2020/12/15 08:35:29;;;;;;;42.13;15.48;;;;;;;2.69;100.00;96134.00;4972851;28;20046;-59
2020/12/15 08:37:58;;;;;;;35.47;15.13;;;;;;;2.75;100.00;96135.31;5035618;28;20053;-57
2020/12/15 08:40:26;;;;;;;38.28;14.13;;;;;;;2.83;100.00;96144.28;4983680;28;20504;-60
2020/12/15 08:42:59;;;;;;;35.08;13.40;;;;;;;2.77;100.00;96143.88;5012432;28;20116;-57
2020/12/15 08:45:26;;;;;;;37.35;14.38;;;;;;;2.83;100.00;96136.47;5003141;28;20132;-59
2020/12/15 08:47:55;;;;;;;43.13;15.60;;;;;;;2.76;100.00;96139.63;5027009;28;20073;-59
2020/12/15 08:50:25;;;;;;;32.17;12.93;;;;;;;2.70;100.00;96143.47;4996655;28;20037;-58
2020/12/15 08:53:04;;;;;;;33.88;12.45;;;;;;;2.84;100.00;96145.13;5030905;28;20124;-58
2020/12/15 08:55:32;;;;;;;30.58;13.20;;;;;;;2.77;100.00;96152.50;4983173;28;20041;-58
2020/12/15 08:58:01;;;;;;;30.38;13.05;;;;;;;2.61;100.00;96149.28;5033340;28;20467;-59
2020/12/15 09:00:33;;;;;;;23.73;11.00;;;;;;;2.57;100.00;96158.25;4998604;28;20507;-59
2020/12/15 09:03:05;;;;;;;26.20;11.35;;;;;;;2.57;100.00;96161.66;5033162;28;20056;-59
2020/12/15 09:05:33;;;;;;;31.05;14.15;;;;;;;2.77;100.00;96159.50;4993618;28;20037;-57
2020/12/15 09:08:05;;;;;;;26.05;12.10;;;;;;;2.99;100.00;96158.84;5022008;28;20037;-59
2020/12/15 09:10:33;;;;;;;26.95;11.65;;;;;;;2.83;100.00;96146.91;4985768;28;20540;-58
2020/12/15 09:13:01;;;;;;;28.83;12.55;;;;;;;2.94;100.00;96148.75;5037170;28;20075;-58
2020/12/15 09:15:33;;;;;;;28.85;12.93;;;;;;;2.78;100.00;96150.75;4993305;28;20052;-60
2020/12/15 09:18:01;;;;;;;28.30;11.93;;;;;;;2.68;100.00;96147.94;5038554;28;20128;-57
2020/12/15 09:20:29;;;;;;;123.45;58.92;;;;;;;2.70;100.00;96153.03;4992364;28;20112;-55
2020/12/15 09:22:56;;;;;;;31.13;14.30;;;;;;;2.92;100.00;96158.44;5027417;28;20518;-58
2020/12/15 09:25:25;;;;;;;29.73;12.75;;;;;;;2.77;100.00;96152.50;4983517;28;20535;-59
2020/12/15 09:27:52;;;;;;;161.20;91.55;;;;;;;2.94;100.00;96153.13;5022994;28;20570;-58
2020/12/15 09:30:19;;;;;;;40.30;14.77;;;;;;;2.77;100.00;96144.72;5019978;28;20076;-57
2020/12/15 09:32:46;;;;;;;43.92;19.80;;;;;;;2.90;100.00;96151.69;5015486;28;20049;-56
2020/12/15 09:35:15;;;;;;;96.45;52.38;;;;;;;2.77;100.00;96154.28;5033076;28;20061;-59
2020/12/15 09:37:43;;;;;;;60.42;33.70;;;;;;;2.95;100.00;96168.66;4984011;28;20041;-55
2020/12/15 09:40:11;;;;;;;31.90;13.98;;;;;;;3.14;100.00;96176.06;5022871;28;20103;-57
2020/12/15 09:42:43;;;;;;;31.13;12.73;;;;;;;3.30;100.00;96181.00;4990376;28;20046;-56
2020/12/15 09:45:10;;;;;;;59.17;14.15;;;;;;;3.40;100.00;96182.03;5023624;28;20053;-59
2020/12/15 09:47:40;;;;;;;38.78;12.18;;;;;;;3.64;100.00;96187.28;4983707;28;20507;-58
2020/12/15 09:50:08;;;;;;;39.88;12.93;;;;;;;3.57;100.00;96180.84;5031078;28;20041;-57
2020/12/15 09:52:35;;;;;;;27.48;12.95;;;;;;;3.50;100.00;96174.41;4988709;28;20161;-57
2020/12/15 09:55:07;;;;;;;26.63;12.23;;;;;;;3.44;100.00;96178.31;5026580;28;20042;-58
2020/12/15 09:57:37;;;;;;;41.47;12.80;;;;;;;3.24;100.00;96171.03;4998011;28;20055;-58
2020/12/15 10:00:05;;;;;;;29.67;11.23;;;;;;;3.29;100.00;96176.75;5026560;28;20128;-59
2020/12/15 10:02:33;;;;;;;24.63;11.50;;;;;;;3.36;100.00;96179.75;4984463;28;20041;-56
2020/12/15 10:05:01;;;;;;;26.98;12.10;;;;;;;3.29;100.00;96188.00;5022515;28;20049;-58
2020/12/15 10:07:29;;;;;;;29.83;12.27;;;;;;;3.53;100.00;96187.22;5003689;28;20045;-59
2020/12/15 10:09:58;;;;;;;92.32;13.25;;;;;;;3.50;100.00;96180.44;5027286;28;20065;-59
2020/12/15 10:12:25;;;;;;;29.58;11.50;;;;;;;3.65;100.00;96167.25;4989211;28;20065;-59
2020/12/15 10:14:52;;;;;;;41.50;12.80;;;;;;;3.52;100.00;96167.31;5033324;28;20129;-57
2020/12/15 10:17:20;;;;;;;29.88;12.52;;;;;;;3.65;100.00;96170.72;4986109;28;20044;-59
2020/12/15 10:19:47;;;;;;;46.83;13.52;;;;;;;3.76;100.00;96170.78;5023022;28;20722;-57
2020/12/15 10:22:15;;;;;;;29.25;12.07;;;;;;;3.99;100.00;96169.13;5032733;28;20048;-59
2020/12/15 10:24:43;;;;;;;30.40;13.60;;;;;;;4.14;100.00;96167.19;4986746;28;20041;-59
2020/12/15 10:27:10;;;;;;;42.55;12.75;;;;;;;4.03;100.00;96157.53;5027121;28;20072;-59
2020/12/15 10:29:38;;;;;;;26.83;12.52;;;;;;;3.76;100.00;96147.31;4999064;28;20116;-59
2020/12/15 10:32:05;;;;;;;32.05;13.07;;;;;;;3.75;100.00;96150.00;5031081;28;20065;-55
2020/12/15 10:34:33;;;;;;;32.30;13.63;;;;;;;3.88;100.00;96155.19;4993684;28;20053;-56
2020/12/15 10:37:01;;;;;;;28.30;12.70;;;;;;;3.71;100.00;96152.00;5014518;28;20505;-59
2020/12/15 10:39:28;;;;;;;34.10;14.00;;;;;;;3.84;100.00;96143.31;4991876;28;20044;-58
2020/12/15 10:41:55;;;;;;;29.98;13.02;;;;;;;3.65;100.00;96149.00;5033263;28;20095;-59
2020/12/15 10:44:22;;;;;;;38.92;13.75;;;;;;;3.39;100.00;96156.09;4983035;28;20519;-57
2020/12/15 10:46:50;;;;;;;63.88;26.02;;;;;;;3.41;100.00;96151.63;5039542;28;20041;-56
2020/12/15 10:49:17;;;;;;;41.58;21.58;;;;;;;3.55;100.00;96159.28;4993071;28;20033;-57
2020/12/15 10:51:49;;;;;;;61.60;30.45;;;;;;;3.34;100.00;96153.81;5023953;28;20049;-55
2020/12/15 10:54:17;;;;;;;39.70;13.30;;;;;;;3.35;100.00;96157.25;4994549;28;20053;-57
2020/12/15 10:56:43;;;;;;;26.95;13.20;;;;;;;3.39;100.00;96161.31;5029146;28;20473;-56
2020/12/15 10:59:11;;;;;;;54.50;14.00;;;;;;;3.15;100.00;96169.88;4983404;28;20088;-58
2020/12/15 11:01:38;;;;;;;44.10;12.48;;;;;;;3.19;100.00;96163.53;5027133;28;20048;-54
2020/12/15 11:04:05;;;;;;;50.60;12.27;;;;;;;3.41;100.00;96168.09;4998337;28;20091;-58
2020/12/15 11:06:35;;;;;;;39.67;13.23;;;;;;;3.27;100.00;96169.06;5054452;28;20120;-59
2020/12/15 11:09:04;;;;;;;29.27;13.13;;;;;;;3.40;100.00;96162.97;5002682;28;20147;-56
2020/12/15 11:11:31;;;;;;;44.08;13.57;;;;;;;3.37;100.00;96168.38;4978619;28;20124;-57
2020/12/15 11:14:02;;;;;;;37.47;13.02;;;;;;;3.55;100.00;96167.09;5024590;28;20041;-56
2020/12/15 11:16:47;;;;;;;27.08;11.45;;;;;;;3.56;100.00;96172.19;5015019;28;20033;-58
2020/12/15 11:19:14;;;;;;;23.38;10.95;;;;;;;3.48;100.00;96173.69;5038342;28;20041;-57
2020/12/15 11:21:41;;;;;;;24.90;11.98;;;;;;;3.45;100.00;96172.13;4990945;28;20498;-58
2020/12/15 11:24:08;;;;;;;28.77;11.85;;;;;;;3.29;100.00;96164.53;5022291;28;20064;-55
2020/12/15 11:26:35;;;;;;;25.70;13.32;;;;;;;3.65;100.00;96167.25;5006055;28;20040;-58
2020/12/15 11:29:03;;;;;;;25.08;10.63;;;;;;;3.89;100.00;96157.72;5026972;28;20504;-57
2020/12/15 11:31:29;;;;;;;32.78;11.18;;;;;;;4.01;100.00;96148.16;4972982;28;20061;-58
2020/12/15 11:33:57;;;;;;;29.67;12.27;;;;;;;3.99;100.00;96153.50;4997246;28;20465;-59
2020/12/15 11:36:26;;;;;;;28.77;12.02;;;;;;;3.62;100.00;96159.69;4951446;28;20459;-58
2020/12/15 11:38:53;;;;;;;40.45;12.93;;;;;;;3.48;100.00;96158.88;5004427;28;20046;-57
2020/12/15 11:41:26;;;;;;;31.50;11.57;;;;;;;3.55;100.00;96160.13;4968216;28;20061;-58
2020/12/15 11:43:54;;;;;;;29.42;11.75;;;;;;;3.62;100.00;96167.50;5003284;28;20061;-58
2020/12/15 11:46:21;;;;;;;33.30;12.75;;;;;;;3.90;100.00;96159.38;4972114;28;20042;-58
2020/12/15 11:48:48;;;;;;;46.35;12.55;;;;;;;4.03;100.00;96151.47;5006868;28;20120;-57
2020/12/15 11:51:18;;;;;;;39.03;11.90;;;;;;;3.94;100.00;96160.78;4971103;28;20096;-58
2020/12/15 11:53:45;;;;;;;25.58;12.07;;;;;;;3.83;100.00;96159.91;5027890;28;20474;-58
2020/12/15 11:56:12;;;;;;;25.33;12.38;;;;;;;3.90;100.00;96167.19;4992495;28;20119;-58
2020/12/15 11:58:42;;;;;;;28.25;12.55;;;;;;;3.72;100.00;96168.53;5030801;28;20044;-58
2020/12/15 12:01:10;;;;;;;30.58;14.50;;;;;;;3.65;100.00;96165.50;5014062;28;20037;-57